createdAt,value
2022-08-07T00:00:50.456Z,99.90
2022-08-07T00:03:37.040Z,99.90
2022-08-07T00:06:32.977Z,99.90
2022-08-07T00:09:22.821Z,99.90
2022-08-07T00:12:11.087Z,99.90
2022-08-07T00:14:58.302Z,99.90
2022-08-07T00:17:44.615Z,99.90
2022-08-07T00:20:34.477Z,99.90
2022-08-07T00:23:21.847Z,99.90
2022-08-07T00:26:18.924Z,99.90
2022-08-07T00:29:18.646Z,99.90
2022-08-07T00:32:11.537Z,99.90
2022-08-07T00:34:59.992Z,99.90
2022-08-07T00:37:48.301Z,99.90
2022-08-07T00:40:39.753Z,99.90
2022-08-07T00:44:01.684Z,99.90
2022-08-07T00:46:34.200Z,99.90
2022-08-07T00:49:24.853Z,99.90
2022-08-07T00:52:26.931Z,99.90
2022-08-07T00:55:13.445Z,99.90
2022-08-07T00:58:04.239Z,99.90
2022-08-07T01:00:53.951Z,99.90
2022-08-07T01:03:57.236Z,99.90
2022-08-07T01:06:46.544Z,99.90
2022-08-07T01:10:04.180Z,99.90
2022-08-07T01:12:53.355Z,99.90
2022-08-07T01:16:05.201Z,99.90
2022-08-07T01:18:50.763Z,99.90
2022-08-07T01:21:38.979Z,99.90
2022-08-07T01:24:27.775Z,99.90
2022-08-07T01:27:19.554Z,99.90
2022-08-07T01:30:19.970Z,99.90
2022-08-07T01:33:15.594Z,99.90
2022-08-07T01:36:06.366Z,99.90
2022-08-07T01:38:56.236Z,99.90
2022-08-07T01:42:07.292Z,99.90
2022-08-07T01:44:54.081Z,99.90
2022-08-07T01:48:19.472Z,99.90
2022-08-07T01:50:52.852Z,99.90
2022-08-07T01:54:11.867Z,99.90
2022-08-07T01:56:56.589Z,99.90
2022-08-07T01:59:57.270Z,99.90
2022-08-07T02:03:18.175Z,99.90
2022-08-07T02:06:08.974Z,99.90
2022-08-07T02:09:51.802Z,99.90
2022-08-07T02:12:29.228Z,99.90
2022-08-07T02:15:23.375Z,99.90
2022-08-07T02:18:13.411Z,99.90
2022-08-07T02:21:00.997Z,99.90
2022-08-07T02:23:53.357Z,99.90
2022-08-07T02:26:41.098Z,99.90
2022-08-07T02:29:30.677Z,99.90
2022-08-07T02:32:23.370Z,99.90
2022-08-07T02:35:11.527Z,99.90
2022-08-07T02:38:08.988Z,99.90
2022-08-07T02:41:00.641Z,99.90
2022-08-07T02:43:49.163Z,99.90
2022-08-07T02:46:38.222Z,99.90
2022-08-07T02:49:56.328Z,99.90
2022-08-07T02:53:03.262Z,99.90
2022-08-07T02:56:04.137Z,99.90
2022-08-07T02:58:55.218Z,99.90
2022-08-07T03:01:47.072Z,99.90
2022-08-07T03:04:34.762Z,99.90
2022-08-07T03:07:25.063Z,99.90
2022-08-07T03:10:28.806Z,99.90
2022-08-07T03:13:19.347Z,99.90
2022-08-07T03:16:06.078Z,99.90
2022-08-07T03:18:52.643Z,99.90
2022-08-07T03:21:40.181Z,99.90
2022-08-07T03:24:37.208Z,99.90
2022-08-07T03:27:30.531Z,99.90
2022-08-07T03:30:32.087Z,99.90
2022-08-07T03:33:19.135Z,99.90
2022-08-07T03:36:09.583Z,99.90
2022-08-07T03:39:05.861Z,99.90
2022-08-07T03:41:57.038Z,99.90
2022-08-07T03:44:53.470Z,99.90
2022-08-07T03:47:45.098Z,99.90
2022-08-07T03:50:36.067Z,99.90
2022-08-07T03:54:00.723Z,99.90
2022-08-07T03:56:32.677Z,99.90
2022-08-07T03:59:22.462Z,99.90
2022-08-07T04:02:11.315Z,99.90
2022-08-07T04:05:00.899Z,99.90
2022-08-07T04:07:48.531Z,99.90
2022-08-07T04:10:42.312Z,99.90
2022-08-07T04:13:29.994Z,99.90
2022-08-07T04:16:37.216Z,99.90
2022-08-07T04:19:51.222Z,99.90
2022-08-07T04:22:33.745Z,99.90
2022-08-07T04:25:24.064Z,99.90
2022-08-07T04:28:15.895Z,99.90
2022-08-07T04:31:09.927Z,99.90
2022-08-07T04:34:16.649Z,99.90
2022-08-07T04:37:08.099Z,99.90
2022-08-07T04:40:07.787Z,99.90
2022-08-07T04:42:54.802Z,99.90
2022-08-07T04:46:01.761Z,99.90
2022-08-07T04:48:52.320Z,99.90
2022-08-07T04:52:11.022Z,99.90
2022-08-07T04:58:14.032Z,99.90
2022-08-07T05:01:53.590Z,99.90
2022-08-07T05:04:50.113Z,99.90
2022-08-07T05:07:48.553Z,99.90
2022-08-07T05:10:58.561Z,99.90
2022-08-07T05:14:53.755Z,99.90
2022-08-07T05:17:11.890Z,99.90
2022-08-07T05:19:59.983Z,99.90
2022-08-07T05:22:47.761Z,99.90
2022-08-07T05:25:36.722Z,99.90
2022-08-07T05:28:48.453Z,99.90
2022-08-07T05:31:41.386Z,99.90
2022-08-07T05:34:42.773Z,99.90
2022-08-07T05:37:31.357Z,99.40
2022-08-07T05:40:28.775Z,99.70
2022-08-07T05:43:16.564Z,99.70
2022-08-07T05:46:06.548Z,99.70
2022-08-07T05:48:59.520Z,99.60
2022-08-07T05:51:50.025Z,98.90
2022-08-07T05:54:44.318Z,98.70
2022-08-07T05:57:42.091Z,97.60
2022-08-07T06:00:33.722Z,98.00
2022-08-07T06:03:25.113Z,97.00
2022-08-07T06:06:34.156Z,96.70
2022-08-07T06:10:03.184Z,96.90
2022-08-07T06:12:33.203Z,97.20
2022-08-07T06:15:22.154Z,96.60
2022-08-07T06:18:28.041Z,96.30
2022-08-07T06:22:16.438Z,96.50
2022-08-07T06:24:38.390Z,96.10
2022-08-07T06:27:59.946Z,95.40
2022-08-07T06:30:42.605Z,95.50
2022-08-07T06:33:35.343Z,96.10
2022-08-07T06:36:34.884Z,95.70
2022-08-07T06:40:15.684Z,95.90
2022-08-07T06:42:41.418Z,95.80
2022-08-07T06:45:32.565Z,95.30
2022-08-07T06:48:24.990Z,95.10
2022-08-07T06:51:24.546Z,95.30
2022-08-07T06:55:34.199Z,95.10
2022-08-07T06:57:43.581Z,95.50
2022-08-07T07:00:42.937Z,95.80
2022-08-07T07:03:47.923Z,95.60
2022-08-07T07:06:57.210Z,95.40
2022-08-07T07:09:47.521Z,95.00
2022-08-07T07:12:48.542Z,94.70
2022-08-07T07:15:41.171Z,95.10
2022-08-07T07:18:47.074Z,95.10
2022-08-07T07:21:40.467Z,94.90
2022-08-07T07:24:57.023Z,94.80
2022-08-07T07:27:58.449Z,94.10
2022-08-07T07:31:00.018Z,94.20
2022-08-07T07:33:56.686Z,94.20
2022-08-07T07:36:48.105Z,94.60
2022-08-07T07:39:52.349Z,94.70
2022-08-07T07:42:42.571Z,94.40
2022-08-07T07:46:38.295Z,93.60
2022-08-07T07:48:39.414Z,93.50
2022-08-07T07:51:28.277Z,93.40
2022-08-07T07:54:20.797Z,93.70
2022-08-07T07:57:09.109Z,93.00
2022-08-07T08:00:00.221Z,92.60
2022-08-07T08:03:05.840Z,91.80
2022-08-07T08:05:55.139Z,91.60
2022-08-07T08:08:44.055Z,92.40
2022-08-07T08:11:59.268Z,92.10
2022-08-07T08:14:37.778Z,91.10
2022-08-07T08:17:57.991Z,90.30
2022-08-07T08:20:36.558Z,89.80
2022-08-07T08:23:41.908Z,90.50
2022-08-07T08:26:50.321Z,89.20
2022-08-07T08:29:55.622Z,88.10
2022-08-07T08:32:49.123Z,88.20
2022-08-07T08:35:39.378Z,87.40
2022-08-07T08:38:41.106Z,86.00
2022-08-07T08:41:58.602Z,86.50
2022-08-07T08:45:17.727Z,85.50
2022-08-07T08:48:17.992Z,85.70
2022-08-07T08:52:13.303Z,85.10
2022-08-07T08:55:07.689Z,84.90
2022-08-07T08:58:13.019Z,83.50
2022-08-07T09:01:19.251Z,83.60
2022-08-07T09:04:28.612Z,83.00
2022-08-07T09:07:25.177Z,83.00
2022-08-07T09:10:32.537Z,83.80
2022-08-07T09:13:37.794Z,82.70
2022-08-07T09:16:56.999Z,83.20
2022-08-07T09:20:35.349Z,83.20
2022-08-07T09:24:34.138Z,81.80
2022-08-07T09:27:04.713Z,82.10
2022-08-07T09:30:08.661Z,81.40
2022-08-07T09:33:05.290Z,81.80
2022-08-07T09:36:16.837Z,80.00
2022-08-07T09:39:54.474Z,80.20
2022-08-07T09:43:24.481Z,80.60
2022-08-07T09:47:50.137Z,80.50
2022-08-07T09:50:48.442Z,78.80
2022-08-07T09:53:41.102Z,79.00
2022-08-07T09:56:52.931Z,79.70
2022-08-07T10:00:14.759Z,78.30
2022-08-07T10:03:08.135Z,75.70
2022-08-07T10:06:24.722Z,76.50
2022-08-07T10:09:42.979Z,75.60
2022-08-07T10:12:45.910Z,75.20
2022-08-07T10:16:09.946Z,76.10
2022-08-07T10:19:18.237Z,75.90
2022-08-07T10:22:33.557Z,75.80
2022-08-07T10:25:42.129Z,75.40
2022-08-07T10:28:32.931Z,75.80
2022-08-07T10:31:38.955Z,75.30
2022-08-07T10:34:27.210Z,75.50
2022-08-07T10:37:59.934Z,76.00
2022-08-07T10:40:45.171Z,75.10
2022-08-07T10:43:43.156Z,75.30
2022-08-07T10:46:37.670Z,73.50
2022-08-07T10:49:49.131Z,72.90
2022-08-07T10:52:53.251Z,74.80
2022-08-07T10:55:50.264Z,74.70
2022-08-07T10:58:47.671Z,75.60
2022-08-07T11:02:12.173Z,74.70
2022-08-07T11:05:13.995Z,73.60
2022-08-07T11:08:17.794Z,73.40
2022-08-07T11:11:20.220Z,74.20
2022-08-07T11:14:43.824Z,74.90
2022-08-07T11:17:46.290Z,72.40
2022-08-07T11:20:52.767Z,71.10
2022-08-07T11:24:04.141Z,70.70
2022-08-07T11:26:57.122Z,70.60
2022-08-07T11:30:17.771Z,70.10
2022-08-07T11:33:53.644Z,71.00
2022-08-07T11:37:11.711Z,70.90
2022-08-07T11:40:27.737Z,72.10
2022-08-07T11:43:41.511Z,72.20
2022-08-07T11:46:36.686Z,70.50
2022-08-07T11:50:31.061Z,70.20
2022-08-07T11:53:16.937Z,70.60
2022-08-07T11:56:45.616Z,69.90
2022-08-07T12:00:19.680Z,70.30
2022-08-07T12:03:44.874Z,70.10
2022-08-07T12:06:51.566Z,71.30
2022-08-07T12:09:50.826Z,71.70
2022-08-07T12:13:03.035Z,71.20
2022-08-07T12:16:09.254Z,71.90
2022-08-07T12:18:55.406Z,70.00
2022-08-07T12:22:38.899Z,70.90
2022-08-07T12:26:22.419Z,70.00
2022-08-07T12:29:37.730Z,69.60
2022-08-07T12:32:40.850Z,69.30
2022-08-07T12:35:36.280Z,67.80
2022-08-07T12:38:30.590Z,69.10
2022-08-07T12:41:49.249Z,69.30
2022-08-07T12:44:39.848Z,68.80
2022-08-07T12:47:53.980Z,68.20
2022-08-07T12:51:18.560Z,67.40
2022-08-07T12:54:38.281Z,67.50
2022-08-07T12:57:29.882Z,66.60
2022-08-07T13:00:50.442Z,66.30
2022-08-07T13:04:04.694Z,65.90
2022-08-07T13:07:10.236Z,65.80
2022-08-07T13:10:44.002Z,64.70
2022-08-07T13:14:03.330Z,64.00
2022-08-07T13:17:00.970Z,63.60
2022-08-07T13:20:09.500Z,63.00
2022-08-07T13:24:02.146Z,62.70
2022-08-07T13:26:47.362Z,65.20
2022-08-07T13:29:57.318Z,65.00
2022-08-07T13:34:14.767Z,64.40
2022-08-07T13:36:26.150Z,65.30
2022-08-07T13:40:33.741Z,65.00
2022-08-07T13:42:44.007Z,64.60
2022-08-07T13:46:12.072Z,64.60
2022-08-07T13:48:51.865Z,64.60
2022-08-07T13:52:04.771Z,64.10
2022-08-07T13:54:56.471Z,63.30
2022-08-07T13:57:59.054Z,64.50
2022-08-07T14:00:54.154Z,63.90
2022-08-07T14:04:07.251Z,63.70
2022-08-07T14:06:50.479Z,63.80
2022-08-07T14:10:15.632Z,64.40
2022-08-07T14:12:55.609Z,64.10
2022-08-07T14:15:56.944Z,64.10
2022-08-07T14:18:57.483Z,65.20
2022-08-07T14:22:03.261Z,64.60
2022-08-07T14:24:54.684Z,64.50
2022-08-07T14:28:10.716Z,64.90
2022-08-07T14:30:53.378Z,65.20
2022-08-07T14:33:45.309Z,65.20
2022-08-07T14:36:33.080Z,63.90
2022-08-07T14:40:16.566Z,65.00
2022-08-07T14:42:31.468Z,63.90
2022-08-07T14:48:33.162Z,64.60
2022-08-07T14:51:22.666Z,65.30
2022-08-07T14:57:19.536Z,65.90
2022-08-07T15:00:30.004Z,65.80
2022-08-07T15:03:22.164Z,65.80
2022-08-07T15:06:31.806Z,66.60
2022-08-07T15:09:58.273Z,66.40
2022-08-07T15:12:31.081Z,65.70
2022-08-07T15:15:24.401Z,65.60
2022-08-07T15:18:33.790Z,66.00
2022-08-07T15:25:14.387Z,66.70
2022-08-07T15:34:15.007Z,67.60
2022-08-07T15:37:06.546Z,67.40
2022-08-07T15:43:52.977Z,66.20
2022-08-07T15:46:31.699Z,67.50
2022-08-07T15:50:03.778Z,67.10
2022-08-07T15:52:39.071Z,66.70
2022-08-07T15:55:54.005Z,67.70
2022-08-07T15:58:52.367Z,67.10
2022-08-07T16:01:44.368Z,66.90
2022-08-07T16:04:48.427Z,67.50
2022-08-07T16:08:32.378Z,67.60
2022-08-07T16:10:56.369Z,67.30
2022-08-07T16:14:06.901Z,67.00
2022-08-07T16:17:15.416Z,66.80
2022-08-07T16:20:08.255Z,66.40
2022-08-07T16:23:25.182Z,66.60
2022-08-07T16:26:59.258Z,67.30
2022-08-07T16:30:30.056Z,67.40
2022-08-07T16:34:02.895Z,67.50
2022-08-07T16:37:02.507Z,67.70
2022-08-07T16:39:57.947Z,67.90
2022-08-07T16:42:43.827Z,68.30
2022-08-07T16:46:40.659Z,67.60
2022-08-07T16:50:27.752Z,67.90
2022-08-07T16:52:57.311Z,68.80
2022-08-07T16:55:56.018Z,69.40
2022-08-07T16:59:14.322Z,69.80
2022-08-07T17:03:05.860Z,68.90
2022-08-07T17:06:19.850Z,68.90
2022-08-07T17:09:10.459Z,69.10
2022-08-07T17:12:35.621Z,69.60
2022-08-07T17:15:44.663Z,69.60
2022-08-07T17:18:53.563Z,70.00
2022-08-07T17:21:51.321Z,70.70
2022-08-07T17:24:48.761Z,70.30
2022-08-07T17:28:06.790Z,70.60
2022-08-07T17:31:15.788Z,70.60
2022-08-07T17:34:35.053Z,71.30
2022-08-07T17:38:06.771Z,71.00
2022-08-07T17:42:01.140Z,71.60
2022-08-07T17:44:35.094Z,71.70
2022-08-07T17:47:46.198Z,72.30
2022-08-07T17:50:54.463Z,72.20
2022-08-07T17:54:13.110Z,72.20
2022-08-07T17:57:56.033Z,72.20
2022-08-07T18:00:48.937Z,72.70
2022-08-07T18:04:07.299Z,72.20
2022-08-07T18:07:20.096Z,72.80
2022-08-07T18:10:33.078Z,72.70
2022-08-07T18:13:40.472Z,72.80
2022-08-07T18:16:34.969Z,73.20
2022-08-07T18:21:11.783Z,73.30
2022-08-07T18:22:36.288Z,73.80
2022-08-07T18:25:40.663Z,74.00
2022-08-07T18:29:05.309Z,74.40
2022-08-07T18:32:49.042Z,74.40
2022-08-07T18:35:59.271Z,75.10
2022-08-07T18:40:06.785Z,75.20
2022-08-07T18:42:36.470Z,75.60
2022-08-07T18:46:25.819Z,75.20
2022-08-07T18:50:19.123Z,75.30
2022-08-07T18:52:56.424Z,75.50
2022-08-07T18:55:56.041Z,75.80
2022-08-07T18:59:47.389Z,76.20
2022-08-07T19:02:42.058Z,76.90
2022-08-07T19:06:02.578Z,76.90
2022-08-07T19:08:55.766Z,76.90
2022-08-07T19:12:04.601Z,77.90
2022-08-07T19:16:04.438Z,77.60
2022-08-07T19:18:46.457Z,78.70
2022-08-07T19:22:04.332Z,78.80
2022-08-07T19:24:53.251Z,78.70
2022-08-07T19:28:58.224Z,78.80
2022-08-07T19:31:00.403Z,78.90
2022-08-07T19:33:59.562Z,79.20
2022-08-07T19:36:51.839Z,79.00
2022-08-07T19:39:58.006Z,79.00
2022-08-07T19:42:49.554Z,79.00
2022-08-07T19:46:05.769Z,78.90
2022-08-07T19:48:53.718Z,79.10
2022-08-07T19:51:52.092Z,79.30
2022-08-07T19:54:56.423Z,78.90
2022-08-07T19:58:01.762Z,78.70
2022-08-07T20:00:56.831Z,78.90
2022-08-07T20:03:44.079Z,78.90
2022-08-07T20:06:31.102Z,79.20
2022-08-07T20:10:33.363Z,79.90
2022-08-07T20:12:34.551Z,79.90
2022-08-07T20:15:33.078Z,80.40
2022-08-07T20:18:32.650Z,81.00
2022-08-07T20:21:22.617Z,81.00
2022-08-07T20:24:16.672Z,81.30
2022-08-07T20:27:07.557Z,81.50
2022-08-07T20:30:00.050Z,81.70
2022-08-07T20:32:47.709Z,81.90
2022-08-07T20:35:51.903Z,83.20
2022-08-07T20:39:00.810Z,82.80
2022-08-07T20:41:59.228Z,82.60
2022-08-07T20:44:49.579Z,82.50
2022-08-07T20:47:55.932Z,82.80
2022-08-07T20:50:44.848Z,83.70
2022-08-07T20:54:03.913Z,84.70
2022-08-07T20:56:46.293Z,85.00
2022-08-07T21:00:07.623Z,85.00
2022-08-07T21:02:59.193Z,85.10
2022-08-07T21:06:21.654Z,84.60
2022-08-07T21:09:16.272Z,84.50
2022-08-07T21:12:04.747Z,84.80
2022-08-07T21:14:53.650Z,85.20
2022-08-07T21:18:06.219Z,85.80
2022-08-07T21:20:55.941Z,85.80
2022-08-07T21:24:00.961Z,86.60
2022-08-07T21:26:56.057Z,86.80
2022-08-07T21:30:11.119Z,87.20
2022-08-07T21:33:21.738Z,87.20
2022-08-07T21:36:32.043Z,87.00
2022-08-07T21:39:44.929Z,86.80
2022-08-07T21:43:03.531Z,86.90
2022-08-07T21:46:08.050Z,87.60
2022-08-07T21:49:17.716Z,87.50
2022-08-07T21:52:17.566Z,87.40
2022-08-07T21:55:37.254Z,87.50
2022-08-07T21:58:51.116Z,88.60
2022-08-07T22:02:11.478Z,88.60
2022-08-07T22:04:53.652Z,88.70
2022-08-07T22:07:59.564Z,88.50
2022-08-07T22:10:49.651Z,88.60
2022-08-07T22:13:51.882Z,89.00
2022-08-07T22:16:48.331Z,89.10
2022-08-07T22:20:23.014Z,89.20
2022-08-07T22:23:24.361Z,89.30
2022-08-07T22:26:16.619Z,89.50
2022-08-07T22:29:15.920Z,89.80
2022-08-07T22:32:20.288Z,90.10
2022-08-07T22:35:07.821Z,90.50
2022-08-07T22:38:10.165Z,90.70
2022-08-07T22:41:20.147Z,90.60
2022-08-07T22:44:12.876Z,90.80
2022-08-07T22:47:23.873Z,91.00
2022-08-07T22:50:33.949Z,91.10
2022-08-07T22:54:07.946Z,91.30
2022-08-07T22:57:00.716Z,91.30
2022-08-07T22:59:52.826Z,91.50
2022-08-07T23:03:15.784Z,91.50
2022-08-07T23:06:23.912Z,91.30
2022-08-07T23:10:03.958Z,91.50
2022-08-07T23:12:41.721Z,91.50
2022-08-07T23:16:05.696Z,91.40
2022-08-07T23:19:38.651Z,91.50
2022-08-07T23:22:58.834Z,91.60
2022-08-07T23:26:03.503Z,91.60
2022-08-07T23:29:05.068Z,91.80
2022-08-07T23:34:20.881Z,92.00
2022-08-07T23:35:50.197Z,92.50
2022-08-07T23:38:43.356Z,92.60
2022-08-07T23:42:04.361Z,92.60
2022-08-07T23:45:15.182Z,92.60
2022-08-07T23:48:11.710Z,92.80
2022-08-07T23:53:00.186Z,92.90
2022-08-07T23:54:45.878Z,93.00
2022-08-07T23:57:55.184Z,93.20
